Time;durP1;ratioP1;P1;durP2;ratioP2;P2;SDS_P1;SDS_P2;PMS_P1;PMS_P2;Temp;Humidity;BMP_temperature;BMP_pressure;BME280_temperature;BME280_humidity;BME280_pressure;Samples;Min_cycle;Max_cycle;Signal;HPM_P1;HPM_P2
2022/10/12 00:01:29;;;;;;;5.10;3.50;;;14.10;55.80;;;;;;5123357;27;20529;-84
2022/10/12 00:03:56;;;;;;;8.50;2.87;;;14.10;55.60;;;;;;5097265;27;20470;-84
2022/10/12 00:06:25;;;;;;;5.27;2.97;;;14.20;54.70;;;;;;5083957;27;20497;-87
2022/10/12 00:08:53;;;;;;;3.33;3.00;;;14.10;54.40;;;;;;5109058;27;20466;-86
2022/10/12 00:11:23;;;;;;;8.57;3.40;;;14.10;54.70;;;;;;5084565;27;20442;-85
2022/10/12 00:13:52;;;;;;;4.87;3.33;;;14.10;54.50;;;;;;5079135;27;20528;-85
2022/10/12 00:16:21;;;;;;;8.70;3.47;;;14.10;54.30;;;;;;5065426;28;20439;-85
2022/10/12 00:18:51;;;;;;;11.77;3.57;;;14.10;54.30;;;;;;5079883;27;20985;-84
2022/10/12 00:21:19;;;;;;;6.03;3.53;;;14.10;54.50;;;;;;5090333;27;20434;-85
2022/10/12 00:23:47;;;;;;;7.60;3.50;;;14.10;54.50;;;;;;5089017;27;20495;-87
2022/10/12 00:26:16;;;;;;;5.90;3.80;;;14.00;54.60;;;;;;5083842;27;20491;-87
2022/10/12 00:28:43;;;;;;;3.90;3.60;;;14.00;54.90;;;;;;5099676;27;20474;-84
2022/10/12 00:31:14;;;;;;;4.17;3.67;;;14.10;55.00;;;;;;5081940;27;20446;-85
2022/10/12 00:33:41;;;;;;;10.83;4.70;;;14.10;55.00;;;;;;5097188;28;20431;-86
2022/10/12 00:36:14;;;;;;;5.33;3.43;;;14.10;55.10;;;;;;5089783;27;20673;-85
2022/10/12 00:38:41;;;;;;;7.10;4.37;;;14.10;54.90;;;;;;5071091;27;20916;-85
2022/10/12 00:41:09;;;;;;;7.47;3.90;;;14.00;54.70;;;;;;5084133;27;20586;-85
2022/10/12 00:43:38;;;;;;;7.13;3.70;;;13.90;55.20;;;;;;5074641;27;20462;-85
2022/10/12 00:46:12;;;;;;;5.83;4.17;;;13.90;55.20;;;;;;5090215;28;20458;-87
2022/10/12 00:48:41;;;;;;;5.53;4.10;;;13.90;55.50;;;;;;5088113;27;20537;-85
2022/10/12 00:51:09;;;;;;;7.53;4.13;;;13.90;55.60;;;;;;5082626;27;20833;-84
2022/10/12 00:53:40;;;;;;;8.83;4.20;;;13.90;56.00;;;;;;5082064;27;20499;-86
2022/10/12 00:56:13;;;;;;;7.90;4.13;;;13.90;55.90;;;;;;5096823;27;20487;-86
2022/10/12 00:58:40;;;;;;;8.33;3.97;;;13.40;56.50;;;;;;5071264;27;20470;-85
2022/10/12 01:01:09;;;;;;;8.30;4.17;;;13.30;57.20;;;;;;5090643;27;20454;-86
2022/10/12 01:03:36;;;;;;;8.47;3.40;;;13.50;56.60;;;;;;5070864;28;21086;-85
2022/10/12 01:06:07;;;;;;;9.37;4.40;;;13.60;55.90;;;;;;5075245;27;20445;-86
2022/10/12 01:08:34;;;;;;;9.70;4.00;;;13.70;55.70;;;;;;5072406;28;21032;-86
2022/10/12 01:11:01;;;;;;;5.77;3.40;;;13.70;55.30;;;;;;5084830;27;20423;-84
2022/10/12 01:13:29;;;;;;;5.77;3.20;;;13.60;55.00;;;;;;5096098;27;20492;-86
2022/10/12 01:16:05;;;;;;;7.07;3.53;;;13.60;54.90;;;;;;5087163;27;20948;-87
2022/10/12 01:18:40;;;;;;;5.17;3.70;;;13.60;54.90;;;;;;5080645;27;20605;-88
2022/10/12 01:21:16;;;;;;;5.90;3.20;;;13.60;54.80;;;;;;5095259;27;20857;-85
2022/10/12 01:24:05;;;;;;;3.83;3.43;;;13.60;54.90;;;;;;5123869;28;20552;-85
2022/10/12 01:27:01;;;;;;;6.03;3.20;;;13.60;54.40;;;;;;5098124;28;20478;-87
2022/10/12 01:30:14;;;;;;;4.13;3.73;;;13.60;54.40;;;;;;5116493;28;20446;-86
2022/10/12 01:33:04;;;;;;;6.23;3.93;;;13.60;54.30;;;;;;5110670;28;20523;-87
2022/10/12 01:35:38;;;;;;;4.63;3.60;;;13.50;54.10;;;;;;5111272;28;20461;-85
2022/10/12 01:38:12;;;;;;;4.30;3.90;;;13.50;54.00;;;;;;5081976;28;20482;-86
2022/10/12 01:40:47;;;;;;;5.00;3.33;;;13.50;54.00;;;;;;5084567;28;20453;-85
2022/10/12 01:43:17;;;;;;;4.67;3.17;;;13.50;54.00;;;;;;5119625;28;20545;-85
2022/10/12 01:45:44;;;;;;;6.60;3.20;;;13.50;54.00;;;;;;5108078;27;20464;-86
2022/10/12 01:48:13;;;;;;;6.63;3.70;;;13.50;53.60;;;;;;5085276;27;20559;-85
2022/10/12 01:50:49;;;;;;;4.93;3.10;;;13.40;53.80;;;;;;5120896;27;20458;-85
2022/10/12 01:53:29;;;;;;;4.90;3.00;;;13.30;54.20;;;;;;5093369;27;20442;-86
2022/10/12 01:56:02;;;;;;;8.67;3.40;;;13.20;54.70;;;;;;5103710;27;20470;-86
2022/10/12 01:58:46;;;;;;;3.80;3.07;;;13.30;54.50;;;;;;5086333;27;20480;-87
2022/10/12 02:01:20;;;;;;;8.30;3.40;;;13.20;54.00;;;;;;5110837;27;20445;-86
2022/10/12 02:03:54;;;;;;;3.73;3.10;;;13.20;54.00;;;;;;5077922;27;20472;-86
2022/10/12 02:06:25;;;;;;;3.00;2.60;;;13.20;53.90;;;;;;5087085;28;20461;-86
2022/10/12 02:08:56;;;;;;;10.00;3.73;;;13.20;53.90;;;;;;5071424;27;20989;-85
2022/10/12 02:11:25;;;;;;;6.60;3.93;;;13.20;53.60;;;;;;5086983;27;20457;-85
2022/10/12 02:13:57;;;;;;;4.40;4.00;;;13.10;53.70;;;;;;5087446;27;20542;-89
2022/10/12 02:16:31;;;;;;;7.20;3.27;;;13.00;53.90;;;;;;5070956;27;20470;-85
2022/10/12 02:19:00;;;;;;;8.07;3.90;;;13.10;53.90;;;;;;5092103;27;20473;-85
2022/10/12 02:21:32;;;;;;;5.10;3.30;;;13.00;54.00;;;;;;5103238;27;20517;-85
2022/10/12 02:24:01;;;;;;;6.33;3.10;;;12.90;54.20;;;;;;5069033;27;20530;-85
2022/10/12 02:26:30;;;;;;;8.90;3.30;;;12.90;54.30;;;;;;5098991;27;20544;-85
2022/10/12 02:29:00;;;;;;;8.17;4.60;;;12.90;54.20;;;;;;5103685;27;20485;-86
2022/10/12 02:31:36;;;;;;;3.87;2.70;;;12.90;53.90;;;;;;5092424;27;20822;-85
2022/10/12 02:34:11;;;;;;;4.30;2.93;;;12.80;54.20;;;;;;5110478;27;20938;-85
2022/10/12 02:36:45;;;;;;;4.30;2.97;;;12.80;54.20;;;;;;5102169;27;20445;-85
2022/10/12 02:39:17;;;;;;;5.17;4.47;;;12.80;54.40;;;;;;5075807;28;21050;-86
2022/10/12 02:41:49;;;;;;;7.20;2.90;;;12.90;54.10;;;;;;5094488;27;20528;-88
2022/10/12 02:44:20;;;;;;;2.93;2.73;;;12.90;53.70;;;;;;5100374;27;20460;-85
2022/10/12 02:46:49;;;;;;;4.53;2.97;;;12.90;53.60;;;;;;5102810;27;20537;-87
2022/10/12 02:49:18;;;;;;;7.07;3.27;;;12.80;53.50;;;;;;5091486;27;20455;-85
2022/10/12 02:51:47;;;;;;;4.83;2.67;;;12.70;53.60;;;;;;5073281;27;20507;-85
2022/10/12 02:54:15;;;;;;;7.00;2.50;;;12.60;53.90;;;;;;5084260;27;20487;-85
2022/10/12 02:56:46;;;;;;;8.20;3.53;;;12.60;53.80;;;;;;5108177;27;20535;-85
2022/10/12 02:59:14;;;;;;;7.30;3.40;;;12.60;53.90;;;;;;5117143;27;21177;-85
2022/10/12 03:01:42;;;;;;;5.40;3.07;;;12.70;53.80;;;;;;5071967;27;20450;-85
2022/10/12 03:04:09;;;;;;;8.07;4.07;;;12.70;54.30;;;;;;5100786;27;20449;-83
2022/10/12 03:06:38;;;;;;;5.10;3.87;;;12.70;54.00;;;;;;5069704;27;20449;-83
2022/10/12 03:09:06;;;;;;;8.50;4.90;;;12.60;54.10;;;;;;5073749;27;20466;-83
2022/10/12 03:11:33;;;;;;;8.87;5.00;;;12.60;54.20;;;;;;5079663;28;20440;-84
2022/10/12 03:14:00;;;;;;;10.80;3.90;;;12.60;54.10;;;;;;5085734;27;20447;-84
2022/10/12 03:16:27;;;;;;;7.07;3.57;;;12.70;54.10;;;;;;5086299;27;20533;-84
2022/10/12 03:18:54;;;;;;;6.03;3.77;;;12.70;54.70;;;;;;5101441;27;20462;-83
2022/10/12 03:21:21;;;;;;;5.23;3.30;;;12.70;53.90;;;;;;5087036;28;20459;-84
2022/10/12 03:23:50;;;;;;;4.67;3.87;;;12.70;53.90;;;;;;5090301;27;20549;-83
2022/10/12 03:26:17;;;;;;;6.13;3.90;;;12.60;53.90;;;;;;5119031;27;20439;-84
2022/10/12 03:28:44;;;;;;;5.60;3.60;;;12.60;53.90;;;;;;5098522;27;20486;-83
2022/10/12 03:31:11;;;;;;;7.67;4.00;;;12.60;53.90;;;;;;5098780;28;21268;-85
2022/10/12 03:33:38;;;;;;;24.30;13.07;;;12.60;54.00;;;;;;5107914;27;20443;-83
2022/10/12 03:36:06;;;;;;;29.33;13.60;;;12.60;53.90;;;;;;5084351;27;20457;-83
2022/10/12 03:38:33;;;;;;;19.77;11.70;;;12.50;53.90;;;;;;5081042;28;20582;-87
2022/10/12 03:41:01;;;;;;;16.53;8.50;;;12.50;54.30;;;;;;5095175;27;20474;-87
2022/10/12 03:43:29;;;;;;;9.00;5.57;;;12.50;54.30;;;;;;5072767;28;20451;-85
2022/10/12 03:45:56;;;;;;;11.10;5.43;;;12.50;54.00;;;;;;5116638;27;20450;-85
2022/10/12 03:48:23;;;;;;;11.20;5.17;;;12.50;54.20;;;;;;5096731;27;20516;-86
2022/10/12 03:50:51;;;;;;;8.60;4.73;;;12.40;54.80;;;;;;5113836;27;20494;-84
2022/10/12 03:53:19;;;;;;;9.27;4.60;;;12.40;54.30;;;;;;5083932;27;21108;-84
2022/10/12 03:55:46;;;;;;;4.63;3.70;;;12.40;54.00;;;;;;5097217;27;20955;-85
2022/10/12 03:58:15;;;;;;;4.87;3.27;;;12.20;54.20;;;;;;5099121;27;20570;-85
2022/10/12 04:00:42;;;;;;;9.50;4.07;;;12.10;54.60;;;;;;5115372;27;20526;-85
2022/10/12 04:03:09;;;;;;;4.90;3.87;;;11.90;55.40;;;;;;5066534;27;20473;-84
2022/10/12 04:05:37;;;;;;;7.73;4.43;;;11.80;56.00;;;;;;5100507;27;20458;-84
2022/10/12 04:08:05;;;;;;;7.57;4.70;;;11.40;56.50;;;;;;5115535;27;20549;-85
2022/10/12 04:10:32;;;;;;;12.73;4.33;;;11.60;56.30;;;;;;5065745;27;21014;-86
2022/10/12 04:12:59;;;;;;;7.93;4.47;;;11.80;55.90;;;;;;5081633;27;20446;-87
2022/10/12 04:15:28;;;;;;;6.80;4.77;;;12.00;55.60;;;;;;5098806;27;20463;-84
2022/10/12 04:17:55;;;;;;;7.73;3.67;;;12.10;55.30;;;;;;5080140;27;20459;-85
2022/10/12 04:20:22;;;;;;;10.77;5.53;;;12.20;55.10;;;;;;5097287;27;21082;-84
2022/10/12 04:22:49;;;;;;;13.10;7.60;;;12.00;56.40;;;;;;5082170;28;20466;-86
2022/10/12 04:25:16;;;;;;;15.30;9.07;;;12.10;56.10;;;;;;5090448;27;20500;-88
2022/10/12 04:27:44;;;;;;;14.27;8.00;;;12.20;57.00;;;;;;5096943;27;20447;-85
2022/10/12 04:30:12;;;;;;;11.57;6.90;;;12.30;56.20;;;;;;5096665;27;20511;-86
2022/10/12 04:32:40;;;;;;;10.50;5.50;;;12.30;56.30;;;;;;5073484;27;20442;-87
2022/10/12 04:35:08;;;;;;;13.17;7.30;;;12.30;56.30;;;;;;5084384;27;20470;-83
2022/10/12 04:37:35;;;;;;;14.43;9.10;;;12.10;56.30;;;;;;5081025;27;20443;-87
2022/10/12 04:40:02;;;;;;;17.10;10.00;;;12.20;56.20;;;;;;5113875;27;20481;-88
2022/10/12 04:42:29;;;;;;;15.07;6.80;;;12.20;56.10;;;;;;5083520;27;20446;-84
2022/10/12 04:44:57;;;;;;;12.07;8.07;;;12.20;56.20;;;;;;5061209;27;20653;-84
2022/10/12 04:47:24;;;;;;;10.00;5.93;;;12.00;56.60;;;;;;5098401;27;20495;-86
2022/10/12 04:49:52;;;;;;;13.27;6.77;;;12.00;56.80;;;;;;5101854;27;20970;-85
2022/10/12 04:52:19;;;;;;;19.77;6.30;;;12.10;56.60;;;;;;5081569;28;20442;-83
2022/10/12 04:54:46;;;;;;;7.73;6.03;;;12.00;56.90;;;;;;5092382;28;20474;-84
2022/10/12 04:57:13;;;;;;;12.00;6.37;;;11.90;57.20;;;;;;5090788;27;20846;-84
2022/10/12 04:59:40;;;;;;;11.30;6.70;;;11.90;57.50;;;;;;5098754;27;20478;-85
2022/10/12 05:02:08;;;;;;;8.83;5.30;;;12.10;57.30;;;;;;5084716;27;20531;-83
2022/10/12 05:04:35;;;;;;;8.50;5.50;;;12.20;57.00;;;;;;5084837;27;20485;-86
2022/10/12 05:07:03;;;;;;;12.50;5.63;;;12.30;57.00;;;;;;5080819;27;20450;-83
2022/10/12 05:09:31;;;;;;;8.20;5.50;;;12.20;57.10;;;;;;5083821;27;20466;-85
2022/10/12 05:11:58;;;;;;;16.37;5.67;;;12.30;57.10;;;;;;5096256;28;20459;-84
2022/10/12 05:14:25;;;;;;;14.17;5.57;;;12.50;56.70;;;;;;5088442;27;20447;-86
2022/10/12 05:16:52;;;;;;;9.93;5.87;;;12.60;56.50;;;;;;5097453;28;20451;-87
2022/10/12 05:19:19;;;;;;;10.13;5.60;;;12.60;56.50;;;;;;5106124;28;20474;-85
2022/10/12 05:21:46;;;;;;;10.33;5.60;;;12.70;56.50;;;;;;5099571;27;21040;-85
2022/10/12 05:24:14;;;;;;;8.93;5.70;;;12.60;56.60;;;;;;5086285;28;21072;-85
2022/10/12 05:26:41;;;;;;;9.47;5.13;;;12.50;56.70;;;;;;5110243;28;20564;-85
2022/10/12 05:29:09;;;;;;;7.60;5.07;;;12.60;56.40;;;;;;5064932;28;20485;-85
2022/10/12 05:31:36;;;;;;;7.47;5.27;;;12.60;56.40;;;;;;5117933;28;20496;-84
2022/10/12 05:34:03;;;;;;;4.87;3.70;;;12.70;56.40;;;;;;5097148;28;20455;-85
2022/10/12 05:36:30;;;;;;;9.50;4.90;;;12.70;56.10;;;;;;5087814;28;20831;-84
2022/10/12 05:38:57;;;;;;;7.90;5.23;;;12.70;56.10;;;;;;5098108;28;20474;-86
2022/10/12 05:41:25;;;;;;;7.13;4.73;;;12.70;55.90;;;;;;5114105;27;20451;-85
2022/10/12 05:43:53;;;;;;;8.70;5.73;;;12.70;55.90;;;;;;5062277;28;20474;-86
2022/10/12 05:46:20;;;;;;;10.50;5.67;;;12.70;55.50;;;;;;5082327;28;20434;-85
2022/10/12 05:48:47;;;;;;;10.10;5.67;;;12.70;55.20;;;;;;5097944;28;20469;-85
2022/10/12 05:51:14;;;;;;;7.83;4.83;;;12.70;55.00;;;;;;5073146;28;20453;-85
2022/10/12 05:53:41;;;;;;;6.83;5.27;;;12.60;55.10;;;;;;5114733;28;20523;-86
2022/10/12 05:56:08;;;;;;;14.50;5.97;;;12.50;55.20;;;;;;5106460;28;20853;-85
2022/10/12 05:58:37;;;;;;;6.80;5.20;;;12.50;55.20;;;;;;5123577;28;20489;-85
2022/10/12 06:01:06;;;;;;;10.53;6.60;;;12.40;55.00;;;;;;5098552;28;21039;-85
2022/10/12 06:03:33;;;;;;;8.63;5.83;;;12.30;54.80;;;;;;5097713;28;20507;-85
2022/10/12 06:06:00;;;;;;;7.30;5.00;;;12.10;55.40;;;;;;5117307;28;20474;-85
2022/10/12 06:08:29;;;;;;;7.40;4.90;;;12.00;55.30;;;;;;5098146;28;20572;-85
2022/10/12 06:10:57;;;;;;;10.87;6.90;;;11.90;56.00;;;;;;5103679;28;20486;-88
2022/10/12 06:13:24;;;;;;;14.00;5.37;;;11.80;56.40;;;;;;5103824;28;20500;-85
2022/10/12 06:15:53;;;;;;;7.67;5.10;;;11.80;56.50;;;;;;5119004;28;20508;-84
2022/10/12 06:18:21;;;;;;;7.40;5.40;;;11.80;56.60;;;;;;5107882;28;20478;-88
2022/10/12 06:20:50;;;;;;;10.90;6.30;;;11.90;56.70;;;;;;5084762;28;20529;-85
2022/10/12 06:23:18;;;;;;;7.23;5.73;;;11.90;56.50;;;;;;5091442;28;20453;-85
2022/10/12 06:25:47;;;;;;;8.80;5.50;;;11.90;56.80;;;;;;5105429;28;20945;-85
2022/10/12 06:28:14;;;;;;;8.97;5.00;;;12.00;56.60;;;;;;5097052;28;20465;-87
2022/10/12 06:30:42;;;;;;;8.03;6.10;;;12.00;56.30;;;;;;5113551;28;20500;-85
2022/10/12 06:33:10;;;;;;;11.77;6.43;;;12.10;56.10;;;;;;5100604;27;20877;-88
2022/10/12 06:35:38;;;;;;;12.70;8.63;;;11.70;56.70;;;;;;5109910;27;20439;-85
2022/10/12 06:38:05;;;;;;;15.70;8.40;;;11.80;57.00;;;;;;5118022;27;20491;-85
2022/10/12 06:40:32;;;;;;;15.80;8.13;;;11.90;57.10;;;;;;5099014;27;20982;-84
2022/10/12 06:43:01;;;;;;;13.67;8.60;;;11.90;56.90;;;;;;5100443;27;20454;-84
2022/10/12 06:45:29;;;;;;;18.03;7.63;;;11.90;57.10;;;;;;5092352;27;20529;-85
2022/10/12 06:47:56;;;;;;;11.80;7.03;;;11.80;57.50;;;;;;5120389;27;20482;-85
2022/10/12 06:50:26;;;;;;;13.03;6.57;;;11.80;57.60;;;;;;5103266;27;20863;-84
2022/10/12 06:52:53;;;;;;;16.33;9.50;;;11.80;57.40;;;;;;5091876;28;20485;-84
2022/10/12 06:55:21;;;;;;;12.50;8.10;;;11.90;57.60;;;;;;5090253;28;20927;-84
2022/10/12 06:57:48;;;;;;;11.17;6.57;;;12.00;57.70;;;;;;5100389;27;20467;-87
2022/10/12 07:00:16;;;;;;;10.43;6.80;;;12.10;57.50;;;;;;5105363;27;20558;-85
2022/10/12 07:02:43;;;;;;;17.97;12.00;;;12.30;57.40;;;;;;5122710;27;20442;-84
2022/10/12 07:05:10;;;;;;;16.83;9.07;;;12.40;57.30;;;;;;5120473;27;20507;-84
2022/10/12 07:07:38;;;;;;;11.53;8.10;;;12.50;56.80;;;;;;5119810;27;20468;-85
2022/10/12 07:10:07;;;;;;;13.67;10.23;;;12.60;57.00;;;;;;5103837;27;20458;-85
2022/10/12 07:12:36;;;;;;;15.20;10.30;;;12.70;56.90;;;;;;5116665;27;21088;-84
2022/10/12 07:15:03;;;;;;;17.97;11.67;;;12.70;56.70;;;;;;5115446;27;20967;-85
2022/10/12 07:17:30;;;;;;;16.73;11.23;;;12.80;56.80;;;;;;5104550;27;20533;-85
2022/10/12 07:19:57;;;;;;;13.13;9.30;;;12.70;56.60;;;;;;5082955;27;21057;-86
2022/10/12 07:22:24;;;;;;;11.97;8.23;;;12.70;56.60;;;;;;5091426;27;20446;-85
2022/10/12 07:24:53;;;;;;;12.83;8.40;;;12.60;57.00;;;;;;5118551;27;20438;-87
2022/10/12 07:27:20;;;;;;;14.03;7.73;;;12.40;57.60;;;;;;5103694;27;20512;-84
2022/10/12 07:29:47;;;;;;;12.53;7.80;;;12.50;57.90;;;;;;5087324;27;20489;-87
2022/10/12 07:32:14;;;;;;;21.03;11.23;;;12.50;57.80;;;;;;5101358;27;21013;-85
2022/10/12 07:34:43;;;;;;;13.30;7.53;;;12.50;57.70;;;;;;5101101;27;20503;-86
2022/10/12 07:37:11;;;;;;;17.10;8.73;;;12.20;58.00;;;;;;5102957;27;20547;-85
2022/10/12 07:39:40;;;;;;;11.73;7.00;;;12.20;58.60;;;;;;5115554;27;20486;-85
2022/10/12 07:42:08;;;;;;;13.53;7.63;;;12.40;58.30;;;;;;5117104;27;20482;-88
2022/10/12 07:44:35;;;;;;;12.03;7.30;;;12.40;58.10;;;;;;5090953;27;21022;-86
2022/10/12 07:47:03;;;;;;;15.23;8.70;;;12.50;58.10;;;;;;5097756;27;20451;-85
2022/10/12 07:49:30;;;;;;;12.40;8.47;;;12.60;57.90;;;;;;5099299;27;20512;-84
2022/10/12 07:51:57;;;;;;;11.37;8.13;;;12.60;57.70;;;;;;5114559;27;20494;-85
2022/10/12 07:54:24;;;;;;;16.33;8.97;;;12.70;58.10;;;;;;5116885;27;20457;-87
2022/10/12 07:56:51;;;;;;;22.53;15.03;;;12.80;58.00;;;;;;5091521;27;20499;-85
2022/10/12 07:59:19;;;;;;;26.27;17.97;;;12.90;58.00;;;;;;5111607;27;20511;-85
2022/10/12 08:01:46;;;;;;;29.90;20.60;;;12.80;58.00;;;;;;5099625;27;20484;-85
2022/10/12 08:04:13;;;;;;;15.23;10.53;;;13.00;58.00;;;;;;5114298;27;20447;-85
2022/10/12 08:06:42;;;;;;;18.90;12.27;;;13.10;57.80;;;;;;5116595;27;20459;-84
2022/10/12 08:09:09;;;;;;;14.40;8.57;;;13.10;57.70;;;;;;5123157;27;20481;-85
2022/10/12 08:11:38;;;;;;;11.13;6.27;;;13.20;57.50;;;;;;5099698;27;20439;-83
2022/10/12 08:14:05;;;;;;;9.10;6.53;;;13.20;57.40;;;;;;5082997;27;20445;-87
2022/10/12 08:16:34;;;;;;;7.97;5.90;;;13.20;57.40;;;;;;5097602;27;20995;-87
2022/10/12 08:19:01;;;;;;;14.20;6.97;;;13.30;57.30;;;;;;5098384;27;20520;-86
2022/10/12 08:21:28;;;;;;;12.77;6.80;;;13.40;57.10;;;;;;5098047;27;20486;-86
2022/10/12 08:23:55;;;;;;;13.37;5.93;;;13.40;56.80;;;;;;5114534;27;20579;-87
2022/10/12 08:26:22;;;;;;;21.70;6.10;;;13.50;56.80;;;;;;5080230;27;20970;-86
2022/10/12 08:28:49;;;;;;;8.87;6.00;;;13.60;57.00;;;;;;5088339;28;20466;-85
2022/10/12 08:31:18;;;;;;;11.23;6.37;;;13.60;56.80;;;;;;5106562;27;20458;-86
2022/10/12 08:33:46;;;;;;;10.97;6.57;;;13.60;56.80;;;;;;5112786;27;20442;-85
2022/10/12 08:36:14;;;;;;;9.50;6.17;;;13.60;56.80;;;;;;5111301;27;20500;-87
2022/10/12 08:38:42;;;;;;;12.37;8.00;;;13.70;57.20;;;;;;5102484;27;20988;-85
2022/10/12 08:41:37;;;;;;;13.43;6.70;;;13.80;57.30;;;;;;5117256;27;20469;-85
2022/10/12 08:44:20;;;;;;;14.33;7.80;;;13.80;56.90;;;;;;5097267;27;21038;-86
2022/10/12 08:46:48;;;;;;;10.43;7.00;;;13.90;57.10;;;;;;5118026;27;20454;-84
2022/10/12 08:49:20;;;;;;;16.47;8.93;;;14.00;56.80;;;;;;5094411;27;20469;-84
2022/10/12 08:51:51;;;;;;;13.40;5.90;;;14.10;56.80;;;;;;5099783;27;20453;-84
2022/10/12 08:54:22;;;;;;;21.87;6.37;;;14.10;56.60;;;;;;5103382;27;20454;-85
2022/10/12 08:56:52;;;;;;;8.77;7.30;;;14.20;56.70;;;;;;5099900;27;20509;-85
2022/10/12 08:59:20;;;;;;;7.33;5.57;;;14.20;56.90;;;;;;5099685;27;20457;-84
2022/10/12 09:02:02;;;;;;;8.17;6.40;;;14.20;56.40;;;;;;5105055;28;20466;-84
2022/10/12 09:04:50;;;;;;;12.30;6.63;;;14.10;56.60;;;;;;5086398;27;20491;-86
2022/10/12 09:07:23;;;;;;;10.57;7.30;;;14.30;56.90;;;;;;5088342;28;20942;-85
2022/10/12 09:10:08;;;;;;;10.60;6.13;;;14.20;57.20;;;;;;5082069;27;20477;-88
2022/10/12 09:12:49;;;;;;;12.63;6.70;;;14.30;56.90;;;;;;5116285;27;20442;-85
2022/10/12 09:15:21;;;;;;;9.93;5.70;;;14.40;56.80;;;;;;5099505;27;20449;-84
2022/10/12 09:17:52;;;;;;;18.33;6.13;;;14.40;56.80;;;;;;5113717;27;20450;-85
2022/10/12 09:20:23;;;;;;;7.67;5.57;;;14.40;56.90;;;;;;5115559;27;20488;-84
2022/10/12 09:22:52;;;;;;;10.40;5.83;;;14.50;56.90;;;;;;5106071;28;20449;-85
2022/10/12 09:25:24;;;;;;;8.87;5.50;;;14.70;56.80;;;;;;5100110;28;20473;-84
2022/10/12 09:27:52;;;;;;;8.77;6.00;;;14.60;56.90;;;;;;5103133;27;20942;-84
2022/10/12 09:30:20;;;;;;;14.90;5.90;;;14.50;57.10;;;;;;5100584;28;20468;-85
2022/10/12 09:33:14;;;;;;;9.37;4.77;;;14.50;57.10;;;;;;5098692;28;20442;-88
2022/10/12 09:35:45;;;;;;;8.53;4.97;;;14.70;57.30;;;;;;5103902;28;21579;-83
2022/10/12 09:38:12;;;;;;;5.57;4.53;;;14.70;57.30;;;;;;5121645;28;20977;-86
2022/10/12 09:40:40;;;;;;;8.73;5.00;;;14.80;57.50;;;;;;5096093;28;20514;-86
2022/10/12 09:43:08;;;;;;;10.60;6.50;;;14.90;57.40;;;;;;5096091;28;20458;-85
2022/10/12 09:45:35;;;;;;;13.97;6.63;;;15.00;57.10;;;;;;5099670;28;20439;-84
2022/10/12 09:48:14;;;;;;;6.70;4.80;;;15.00;57.20;;;;;;5096507;28;20950;-86
2022/10/12 09:50:47;;;;;;;15.37;7.33;;;15.10;57.10;;;;;;5115452;28;20445;-84
2022/10/12 09:53:34;;;;;;;16.40;5.60;;;15.20;57.00;;;;;;5116589;28;20466;-87
2022/10/12 09:56:06;;;;;;;13.67;6.03;;;15.10;57.10;;;;;;5096424;28;20446;-85
2022/10/12 09:58:41;;;;;;;11.97;7.07;;;15.10;57.30;;;;;;5099338;28;20538;-83
2022/10/12 10:01:26;;;;;;;11.27;4.90;;;15.20;57.00;;;;;;5112819;28;20458;-84
2022/10/12 10:04:14;;;;;;;10.00;5.33;;;15.20;57.00;;;;;;5099561;28;20451;-84
2022/10/12 10:06:45;;;;;;;11.00;6.20;;;15.30;57.00;;;;;;5119869;27;20470;-87
2022/10/12 10:09:32;;;;;;;11.63;5.83;;;15.40;56.90;;;;;;5092866;27;20469;-85
2022/10/12 10:12:14;;;;;;;9.97;6.07;;;15.70;56.90;;;;;;5087247;27;20445;-86
2022/10/12 10:14:43;;;;;;;10.70;6.77;;;15.90;56.30;;;;;;5120244;27;20443;-85
2022/10/12 10:17:15;;;;;;;13.20;6.77;;;16.00;56.20;;;;;;5101893;27;20839;-85
2022/10/12 10:19:50;;;;;;;10.67;5.90;;;16.20;56.30;;;;;;5110746;27;20470;-86
2022/10/12 10:22:19;;;;;;;10.97;6.57;;;16.20;56.30;;;;;;5089651;27;20464;-84
2022/10/12 10:24:51;;;;;;;8.70;6.80;;;16.30;56.00;;;;;;5094775;27;20492;-86
2022/10/12 10:27:36;;;;;;;12.93;6.80;;;16.40;56.00;;;;;;5104723;27;21016;-85
2022/10/12 10:30:22;;;;;;;9.83;6.60;;;16.60;55.70;;;;;;5120272;27;20470;-85
2022/10/12 10:33:14;;;;;;;8.53;6.00;;;16.70;55.60;;;;;;5108857;27;20478;-86
2022/10/12 10:35:54;;;;;;;13.83;6.90;;;16.80;55.70;;;;;;5094789;27;22021;-84
2022/10/12 10:38:23;;;;;;;14.07;7.03;;;16.80;55.80;;;;;;5119057;27;20840;-88
2022/10/12 10:40:52;;;;;;;10.03;5.97;;;17.00;55.60;;;;;;5101487;28;20458;-86
2022/10/12 10:43:23;;;;;;;14.27;7.03;;;17.10;55.40;;;;;;5122070;27;20976;-84
2022/10/12 10:45:53;;;;;;;11.87;7.60;;;16.90;55.70;;;;;;5093723;27;20448;-86
2022/10/12 10:48:23;;;;;;;14.47;7.50;;;17.00;55.70;;;;;;5112452;27;20461;-85
2022/10/12 10:50:55;;;;;;;16.10;6.63;;;17.00;56.00;;;;;;5092923;27;20517;-84
2022/10/12 10:53:25;;;;;;;12.30;7.53;;;17.30;55.80;;;;;;5088531;27;20553;-86
2022/10/12 10:55:58;;;;;;;7.90;7.03;;;17.50;55.50;;;;;;5090239;27;20466;-84
2022/10/12 10:58:33;;;;;;;13.90;7.77;;;17.50;55.50;;;;;;5103448;27;20541;-84
2022/10/12 11:01:05;;;;;;;15.03;7.60;;;17.60;55.40;;;;;;5115967;27;20553;-86
2022/10/12 11:03:42;;;;;;;19.30;9.53;;;17.80;55.00;;;;;;5093054;27;20521;-85
2022/10/12 11:06:20;;;;;;;12.93;8.07;;;17.80;55.00;;;;;;5118245;27;20468;-86
2022/10/12 11:08:56;;;;;;;10.43;6.93;;;17.90;55.30;;;;;;5100364;27;20475;-83
2022/10/12 11:11:25;;;;;;;10.47;8.40;;;18.00;55.40;;;;;;5084393;27;20434;-85
2022/10/12 11:13:58;;;;;;;9.47;7.70;;;18.10;55.00;;;;;;5122161;27;20447;-86
2022/10/12 11:16:31;;;;;;;13.33;7.60;;;18.30;54.50;;;;;;5090880;27;20895;-86
2022/10/12 11:19:02;;;;;;;13.07;7.60;;;18.40;54.60;;;;;;5118299;27;20466;-88
2022/10/12 11:21:35;;;;;;;12.77;7.47;;;18.50;54.70;;;;;;5106788;27;21231;-87
2022/10/12 11:24:09;;;;;;;13.10;7.37;;;18.80;54.40;;;;;;5089412;27;20438;-85
2022/10/12 11:26:40;;;;;;;13.60;7.07;;;19.00;53.90;;;;;;5104674;27;20430;-85
2022/10/12 11:29:09;;;;;;;14.83;7.43;;;19.10;54.20;;;;;;5108252;27;20458;-84
2022/10/12 11:31:38;;;;;;;12.80;7.07;;;19.30;53.50;;;;;;5120611;27;20536;-85
2022/10/12 11:34:12;;;;;;;11.53;7.90;;;19.50;53.30;;;;;;5114585;27;20435;-86
2022/10/12 11:36:43;;;;;;;16.40;8.90;;;19.80;52.70;;;;;;5086844;27;21117;-83
2022/10/12 11:39:18;;;;;;;14.27;8.20;;;20.00;51.70;;;;;;5101190;27;20524;-85
2022/10/12 11:41:48;;;;;;;12.73;7.30;;;20.20;52.20;;;;;;5106787;27;20898;-85
2022/10/12 11:44:19;;;;;;;12.27;6.83;;;20.30;51.90;;;;;;5105438;27;20936;-83
2022/10/12 11:46:51;;;;;;;17.27;7.97;;;20.60;51.50;;;;;;5117252;27;20431;-86
2022/10/12 11:49:26;;;;;;;9.37;7.17;;;20.70;51.00;;;;;;5101324;27;20459;-87
2022/10/12 11:51:58;;;;;;;16.83;7.57;;;21.00;50.60;;;;;;5093274;27;20446;-85
2022/10/12 11:54:31;;;;;;;9.77;7.57;;;21.00;50.30;;;;;;5118698;27;20443;-85
2022/10/12 11:57:04;;;;;;;12.20;7.60;;;20.70;51.00;;;;;;5106634;27;20451;-85
2022/10/12 11:59:38;;;;;;;12.47;8.13;;;20.60;51.30;;;;;;5107096;27;20458;-87
2022/10/12 12:02:21;;;;;;;14.77;10.43;;;20.70;52.20;;;;;;5098379;27;21048;-87
2022/10/12 12:04:49;;;;;;;10.07;7.30;;;21.20;50.90;;;;;;5113772;27;20507;-85
2022/10/12 12:07:39;;;;;;;11.80;7.90;;;21.50;50.40;;;;;;5093148;27;20906;-84
2022/10/12 12:10:40;;;;;;;15.07;7.43;;;21.70;50.00;;;;;;5117658;27;20481;-84
2022/10/12 12:13:21;;;;;;;12.27;7.87;;;21.60;50.20;;;;;;5098339;27;20482;-85
2022/10/12 12:16:22;;;;;;;13.57;7.60;;;21.70;50.50;;;;;;5088578;27;20863;-85
2022/10/12 12:19:16;;;;;;;21.03;7.73;;;21.90;50.00;;;;;;5004217;28;20478;-87
2022/10/12 12:22:29;;;;;;;13.47;7.60;;;22.10;49.50;;;;;;5112124;27;20457;-85
2022/10/12 12:25:23;;;;;;;10.77;7.47;;;22.30;48.60;;;;;;5088066;27;20443;-83
2022/10/12 12:27:52;;;;;;;11.97;8.03;;;22.10;49.00;;;;;;5119884;27;20544;-86
2022/10/12 12:30:31;;;;;;;11.80;7.40;;;21.90;49.70;;;;;;5098683;27;20549;-87
2022/10/12 12:33:00;;;;;;;11.30;7.07;;;21.60;50.00;;;;;;5100769;28;20450;-85
2022/10/12 12:35:32;;;;;;;12.77;8.63;;;21.50;50.30;;;;;;5100275;27;20478;-84
2022/10/12 12:38:04;;;;;;;10.80;7.53;;;21.70;50.00;;;;;;5118428;27;20442;-85
2022/10/12 12:40:32;;;;;;;12.20;7.10;;;22.10;50.50;;;;;;5095378;27;20910;-86
2022/10/12 12:43:34;;;;;;;13.23;7.80;;;22.40;48.40;;;;;;5108860;27;20466;-85
2022/10/12 12:46:05;;;;;;;14.13;8.00;;;22.60;49.10;;;;;;5098692;27;20454;-85
2022/10/12 12:49:01;;;;;;;17.00;8.60;;;22.80;48.80;;;;;;5097827;27;20531;-84
2022/10/12 12:51:40;;;;;;;9.97;7.97;;;23.10;48.70;;;;;;5118046;27;20441;-85
2022/10/12 12:54:17;;;;;;;10.97;7.00;;;22.80;47.20;;;;;;5098559;27;20512;-85
2022/10/12 12:57:16;;;;;;;10.20;7.27;;;22.80;48.50;;;;;;5083440;27;21094;-85
2022/10/12 13:00:09;;;;;;;17.30;7.77;;;22.70;48.70;;;;;;5076095;27;20465;-85
2022/10/12 13:03:09;;;;;;;18.93;7.73;;;22.80;48.00;;;;;;5082775;28;20451;-84